Time;durP1;ratioP1;P1;durP2;ratioP2;P2;SDS_P1;SDS_P2;PMS_P1;PMS_P2;Temp;Humidity;BMP_temperature;BMP_pressure;BME280_temperature;BME280_humidity;BME280_pressure;Samples;Min_cycle;Max_cycle;Signal;HPM_P1;HPM_P2
2023/05/06 00:02:17;;;;;;;12.75;9.95;;;11.30;93.50;;;;;;4998735;28;20127;-80
2023/05/06 00:04:43;;;;;;;12.13;9.77;;;11.30;93.60;;;;;;4998138;28;20049;-80
2023/05/06 00:07:08;;;;;;;11.80;10.30;;;11.30;93.50;;;;;;4983359;28;20045;-81
2023/05/06 00:09:34;;;;;;;10.00;9.00;;;11.30;93.60;;;;;;5015853;28;20390;-79
2023/05/06 00:12:00;;;;;;;12.40;9.30;;;11.30;93.60;;;;;;5015882;28;20048;-82
2023/05/06 00:14:25;;;;;;;10.90;9.32;;;11.30;93.60;;;;;;4983474;28;20135;-81
2023/05/06 00:16:51;;;;;;;9.82;8.32;;;11.20;93.60;;;;;;4999406;28;20482;-79
2023/05/06 00:19:17;;;;;;;12.98;9.95;;;11.20;93.70;;;;;;4999310;28;20041;-80
2023/05/06 00:21:42;;;;;;;11.10;9.90;;;11.20;93.90;;;;;;4999055;28;20088;-79
2023/05/06 00:24:08;;;;;;;12.18;10.57;;;11.20;94.00;;;;;;4998290;28;20045;-80
2023/05/06 00:26:34;;;;;;;11.88;10.60;;;11.20;94.10;;;;;;5015339;28;20053;-80
2023/05/06 00:29:00;;;;;;;10.38;8.30;;;11.10;94.00;;;;;;4999170;28;20121;-81
2023/05/06 00:31:25;;;;;;;10.77;9.68;;;11.20;94.00;;;;;;5015389;28;20042;-81
2023/05/06 00:33:51;;;;;;;11.65;10.45;;;11.20;94.10;;;;;;4999013;28;20116;-81
2023/05/06 00:36:17;;;;;;;12.82;10.32;;;11.20;94.10;;;;;;4999066;28;20041;-80
2023/05/06 00:38:43;;;;;;;12.40;9.32;;;11.20;94.10;;;;;;4998464;28;20486;-80
2023/05/06 00:41:08;;;;;;;11.95;10.68;;;11.20;94.20;;;;;;5015277;28;20046;-81
2023/05/06 00:43:34;;;;;;;9.88;8.73;;;11.20;94.20;;;;;;5014980;28;20180;-80
2023/05/06 00:46:00;;;;;;;12.88;9.95;;;11.20;94.30;;;;;;4998600;28;20092;-81
2023/05/06 00:48:26;;;;;;;11.82;9.73;;;11.20;94.30;;;;;;4998542;28;20112;-80
2023/05/06 00:50:51;;;;;;;11.80;9.15;;;11.20;94.40;;;;;;4998512;28;20038;-80
2023/05/06 00:53:20;;;;;;;10.00;8.98;;;11.20;94.40;;;;;;4998469;28;20042;-79
2023/05/06 00:55:48;;;;;;;11.57;10.38;;;11.20;94.40;;;;;;5013576;28;20042;-81
2023/05/06 00:58:14;;;;;;;11.23;9.23;;;11.20;94.40;;;;;;5014773;28;20117;-80
2023/05/06 01:00:41;;;;;;;11.63;9.57;;;11.20;94.40;;;;;;5014623;28;20034;-78
2023/05/06 01:03:07;;;;;;;13.57;10.15;;;11.10;94.50;;;;;;4998088;28;20053;-80
2023/05/06 01:05:46;;;;;;;12.77;9.43;;;11.10;94.50;;;;;;5014611;28;20438;-81
2023/05/06 01:08:26;;;;;;;11.80;9.73;;;11.10;94.30;;;;;;5014674;28;20150;-80
2023/05/06 01:11:01;;;;;;;9.52;8.55;;;11.10;94.40;;;;;;5014684;28;20103;-80
2023/05/06 01:13:49;;;;;;;12.60;9.68;;;11.10;94.30;;;;;;5013690;28;20524;-80
2023/05/06 01:16:18;;;;;;;12.25;10.90;;;11.10;94.30;;;;;;4998073;28;20042;-79
2023/05/06 01:18:44;;;;;;;10.85;9.43;;;11.10;94.30;;;;;;5014367;28;20049;-81
2023/05/06 01:21:11;;;;;;;10.95;9.85;;;11.10;94.50;;;;;;5014462;28;20046;-81
2023/05/06 01:23:56;;;;;;;12.10;9.85;;;11.10;94.50;;;;;;5014166;28;20052;-79
2023/05/06 01:26:26;;;;;;;10.63;8.07;;;11.10;94.40;;;;;;4997854;28;20038;-80
2023/05/06 01:28:52;;;;;;;9.82;8.82;;;11.10;94.40;;;;;;5014129;28;20176;-80
2023/05/06 01:31:40;;;;;;;12.20;9.80;;;11.10;94.30;;;;;;5013133;28;20561;-80
2023/05/06 01:34:17;;;;;;;12.65;10.32;;;11.00;94.50;;;;;;4997977;28;20390;-82
2023/05/06 01:37:11;;;;;;;8.60;7.32;;;11.00;94.50;;;;;;4997755;28;20202;-81
2023/05/06 01:39:40;;;;;;;10.23;8.93;;;11.00;94.60;;;;;;5013349;28;20049;-80
2023/05/06 01:42:07;;;;;;;10.68;9.27;;;11.00;94.50;;;;;;4996840;28;20049;-82
2023/05/06 01:44:35;;;;;;;12.60;10.70;;;11.00;94.50;;;;;;5013168;28;20581;-81
2023/05/06 01:47:01;;;;;;;11.52;10.32;;;11.00;94.60;;;;;;5012234;28;20608;-80
2023/05/06 01:49:28;;;;;;;13.80;9.32;;;11.00;94.60;;;;;;4996879;28;20214;-82
2023/05/06 01:51:55;;;;;;;12.52;9.95;;;11.00;94.60;;;;;;4980761;28;20042;-79
2023/05/06 01:54:21;;;;;;;11.13;9.65;;;11.00;94.60;;;;;;5013598;28;20050;-80
2023/05/06 01:56:46;;;;;;;12.23;10.05;;;11.00;94.50;;;;;;5013385;28;20050;-80
2023/05/06 01:59:12;;;;;;;13.45;11.25;;;11.00;94.50;;;;;;5013490;28;20042;-81
2023/05/06 02:01:38;;;;;;;12.05;9.75;;;10.90;94.50;;;;;;4993400;28;20502;-81
2023/05/06 02:04:04;;;;;;;13.90;10.70;;;10.90;94.50;;;;;;4977709;28;20415;-81
2023/05/06 02:06:29;;;;;;;11.80;9.48;;;10.90;94.50;;;;;;4994338;28;20088;-79
2023/05/06 02:08:55;;;;;;;13.07;9.20;;;10.80;94.50;;;;;;4976852;28;20073;-81
2023/05/06 02:11:21;;;;;;;11.85;10.10;;;10.80;94.50;;;;;;4977771;28;20049;-80
2023/05/06 02:13:46;;;;;;;11.98;10.68;;;10.80;94.60;;;;;;4993271;28;20562;-79
2023/05/06 02:16:12;;;;;;;11.88;10.00;;;10.70;94.60;;;;;;4993904;28;20075;-80
2023/05/06 02:18:38;;;;;;;11.10;9.70;;;10.70;94.60;;;;;;4977362;28;20545;-81
2023/05/06 02:21:03;;;;;;;13.27;10.55;;;10.70;94.70;;;;;;4977365;28;20043;-81
2023/05/06 02:23:29;;;;;;;12.52;10.50;;;10.60;94.80;;;;;;4977416;28;20038;-80
2023/05/06 02:25:56;;;;;;;10.10;8.75;;;10.60;94.90;;;;;;4993564;28;20537;-79
2023/05/06 02:28:23;;;;;;;12.57;10.93;;;10.60;95.00;;;;;;4993722;28;20133;-80
2023/05/06 02:30:48;;;;;;;17.23;12.75;;;10.60;95.10;;;;;;4993071;28;20093;-80
2023/05/06 02:33:14;;;;;;;14.75;11.20;;;10.60;95.20;;;;;;4992988;28;20046;-82
2023/05/06 02:35:40;;;;;;;13.00;10.07;;;10.60;95.20;;;;;;4972945;28;20044;-81
2023/05/06 02:38:05;;;;;;;15.52;12.43;;;10.60;95.10;;;;;;5012183;28;20045;-81
2023/05/06 02:40:31;;;;;;;20.92;13.82;;;10.60;95.00;;;;;;5012310;28;20045;-78
2023/05/06 02:42:57;;;;;;;18.05;11.98;;;10.60;94.90;;;;;;4996018;28;20042;-80
2023/05/06 02:45:22;;;;;;;13.50;10.40;;;10.60;94.80;;;;;;4995838;28;20453;-80
2023/05/06 02:47:48;;;;;;;15.38;11.88;;;10.60;94.90;;;;;;4995989;28;20041;-80
2023/05/06 02:50:15;;;;;;;18.75;14.07;;;10.60;94.90;;;;;;4994882;28;20033;-80
2023/05/06 02:52:41;;;;;;;12.48;9.70;;;10.50;94.90;;;;;;5011954;28;20045;-80
2023/05/06 02:55:07;;;;;;;16.10;12.48;;;10.50;95.00;;;;;;5012234;28;20048;-80
2023/05/06 02:57:33;;;;;;;14.30;12.05;;;10.50;95.00;;;;;;4995695;28;20044;-80
2023/05/06 02:59:59;;;;;;;14.18;11.48;;;10.50;95.00;;;;;;5012177;28;20077;-82
2023/05/06 03:02:24;;;;;;;17.17;13.40;;;10.40;95.00;;;;;;4995195;28;20509;-80
2023/05/06 03:04:50;;;;;;;17.67;13.60;;;10.40;95.00;;;;;;4979455;28;20406;-81
2023/05/06 03:07:16;;;;;;;16.40;13.13;;;10.30;95.00;;;;;;5010673;28;20109;-81
2023/05/06 03:09:42;;;;;;;14.57;12.32;;;10.30;95.00;;;;;;4979279;28;20046;-80
2023/05/06 03:12:07;;;;;;;15.10;12.05;;;10.30;95.00;;;;;;4979333;28;20048;-81
2023/05/06 03:14:33;;;;;;;16.73;12.88;;;10.30;95.00;;;;;;4995498;28;20156;-81
2023/05/06 03:16:59;;;;;;;19.55;14.40;;;10.30;95.00;;;;;;4995530;28;20093;-79
2023/05/06 03:19:24;;;;;;;17.00;13.35;;;10.30;95.00;;;;;;4979501;28;20466;-81
2023/05/06 03:21:50;;;;;;;20.00;15.35;;;10.30;94.90;;;;;;4995437;28;20402;-80
2023/05/06 03:24:16;;;;;;;16.95;13.93;;;10.30;95.00;;;;;;5010378;28;20092;-80
2023/05/06 03:26:41;;;;;;;15.00;12.85;;;10.30;95.00;;;;;;5011843;28;20077;-81
2023/05/06 03:29:07;;;;;;;19.05;14.38;;;10.30;95.00;;;;;;5011629;28;20046;-81
2023/05/06 03:31:33;;;;;;;18.38;14.55;;;10.30;95.00;;;;;;4995379;28;20049;-79
2023/05/06 03:33:59;;;;;;;16.35;13.82;;;10.30;95.10;;;;;;4962992;28;20053;-80
2023/05/06 03:36:24;;;;;;;19.63;15.40;;;10.30;95.10;;;;;;4995511;28;20397;-80
2023/05/06 03:38:50;;;;;;;23.85;16.75;;;10.40;95.20;;;;;;4994359;28;20402;-80
2023/05/06 03:41:17;;;;;;;21.40;15.77;;;10.30;95.30;;;;;;4979011;28;20034;-80
2023/05/06 03:43:42;;;;;;;19.02;13.85;;;10.30;95.50;;;;;;5011688;28;20393;-81
2023/05/06 03:46:08;;;;;;;21.48;15.77;;;10.40;95.70;;;;;;5011655;28;20038;-79
2023/05/06 03:48:34;;;;;;;20.15;15.77;;;10.40;95.50;;;;;;4995391;28;20604;-81
2023/05/06 03:51:00;;;;;;;22.90;17.73;;;10.40;95.60;;;;;;4995021;28;20545;-79
2023/05/06 03:53:27;;;;;;;23.08;16.65;;;10.50;95.50;;;;;;5010684;28;20040;-79
2023/05/06 03:55:52;;;;;;;23.92;17.60;;;10.50;95.50;;;;;;5011482;28;20120;-79
2023/05/06 03:58:18;;;;;;;25.30;17.83;;;10.50;95.50;;;;;;5011289;28;20473;-80
2023/05/06 04:00:44;;;;;;;24.55;17.13;;;10.50;95.50;;;;;;4995018;28;20121;-81
2023/05/06 04:03:10;;;;;;;25.52;18.25;;;10.60;95.60;;;;;;5011657;28;20080;-80
2023/05/06 04:05:36;;;;;;;28.60;20.88;;;10.50;95.60;;;;;;5030438;28;20374;-80
2023/05/06 04:08:01;;;;;;;14.07;11.68;;;10.60;95.20;;;;;;5029454;28;20041;-80
2023/05/06 04:10:28;;;;;;;16.90;12.80;;;10.60;94.80;;;;;;5010801;28;20100;-79
2023/05/06 04:12:53;;;;;;;19.77;15.90;;;10.70;94.80;;;;;;5010318;28;20085;-80
2023/05/06 04:15:19;;;;;;;23.80;16.80;;;10.70;94.70;;;;;;5010501;28;20077;-80
2023/05/06 04:17:45;;;;;;;25.00;17.10;;;10.60;94.80;;;;;;4977887;28;20046;-79
2023/05/06 04:20:11;;;;;;;24.20;17.92;;;10.60;94.80;;;;;;4994179;28;20041;-80
2023/05/06 04:22:37;;;;;;;28.35;19.35;;;10.60;94.80;;;;;;4977900;28;20050;-80
2023/05/06 04:25:03;;;;;;;26.30;19.42;;;10.60;94.90;;;;;;5007205;28;20050;-79
2023/05/06 04:27:30;;;;;;;26.35;19.40;;;10.60;95.30;;;;;;5010160;28;20042;-79
2023/05/06 04:29:57;;;;;;;28.92;18.85;;;10.60;95.40;;;;;;4994477;28;20111;-79
2023/05/06 04:32:26;;;;;;;30.33;18.92;;;10.70;95.50;;;;;;5013337;28;20054;-80
2023/05/06 04:34:53;;;;;;;39.10;21.20;;;10.70;95.70;;;;;;5014160;28;20053;-80
2023/05/06 04:37:19;;;;;;;27.23;18.42;;;10.70;95.80;;;;;;5014167;28;20045;-80
2023/05/06 04:39:48;;;;;;;30.45;19.45;;;10.90;97.10;;;;;;4981518;28;20041;-80
2023/05/06 04:42:15;;;;;;;32.55;20.10;;;11.00;96.90;;;;;;4997189;28;20124;-80
2023/05/06 04:44:43;;;;;;;27.10;18.30;;;11.10;97.30;;;;;;4998029;28;20044;-80
2023/05/06 04:47:09;;;;;;;29.40;19.45;;;11.10;96.80;;;;;;5014252;28;20042;-80
2023/05/06 04:49:35;;;;;;;25.80;18.25;;;11.20;97.30;;;;;;4997672;28;20508;-80
2023/05/06 04:52:01;;;;;;;29.58;19.88;;;11.20;97.20;;;;;;4981748;28;20068;-80
2023/05/06 04:54:26;;;;;;;30.17;18.88;;;11.20;96.80;;;;;;4997818;28;20050;-80
2023/05/06 04:56:53;;;;;;;26.25;18.77;;;11.30;97.00;;;;;;4997829;28;20046;-79
2023/05/06 04:59:18;;;;;;;16.00;11.57;;;11.30;97.00;;;;;;4997827;28;20042;-80
2023/05/06 05:01:45;;;;;;;27.33;18.17;;;11.40;96.80;;;;;;4997281;28;20544;-80
2023/05/06 05:04:11;;;;;;;29.73;18.85;;;11.40;96.70;;;;;;4981313;28;20054;-81
2023/05/06 05:06:37;;;;;;;26.33;18.35;;;11.40;96.60;;;;;;4997791;28;20100;-80
2023/05/06 05:09:02;;;;;;;21.77;14.70;;;11.40;96.50;;;;;;4997694;28;20050;-80
2023/05/06 05:11:28;;;;;;;24.02;16.63;;;11.50;96.30;;;;;;5014099;28;20090;-80
2023/05/06 05:13:54;;;;;;;24.30;17.40;;;11.50;96.30;;;;;;4981371;28;20085;-80
2023/05/06 05:16:20;;;;;;;20.92;15.43;;;11.50;96.10;;;;;;5012739;28;20129;-80
2023/05/06 05:18:45;;;;;;;22.92;15.70;;;11.50;96.30;;;;;;5013829;28;20096;-79
2023/05/06 05:21:11;;;;;;;21.90;15.73;;;11.50;96.10;;;;;;4981345;28;20038;-80
2023/05/06 05:23:37;;;;;;;25.33;17.33;;;11.60;96.20;;;;;;4997553;28;20085;-80
2023/05/06 05:26:03;;;;;;;30.08;19.05;;;11.60;96.30;;;;;;5013678;28;20053;-80
2023/05/06 05:28:28;;;;;;;27.23;18.20;;;11.60;96.40;;;;;;4997602;28;20077;-80
2023/05/06 05:31:00;;;;;;;30.13;20.05;;;11.60;96.20;;;;;;5013564;28;20037;-80
2023/05/06 05:33:25;;;;;;;32.80;21.25;;;11.60;96.30;;;;;;5012643;28;20049;-80
2023/05/06 05:35:51;;;;;;;27.60;21.10;;;11.60;96.40;;;;;;4997230;28;20527;-80
2023/05/06 05:38:17;;;;;;;31.00;22.90;;;11.60;96.30;;;;;;4997068;28;20114;-80
2023/05/06 05:40:42;;;;;;;26.40;18.58;;;11.60;96.20;;;;;;4997476;28;20042;-79
2023/05/06 05:43:08;;;;;;;28.20;20.52;;;11.70;96.30;;;;;;5012326;28;20041;-80
2023/05/06 05:45:34;;;;;;;34.95;21.30;;;11.60;96.40;;;;;;4997091;28;20131;-80
2023/05/06 05:48:00;;;;;;;31.13;19.38;;;11.60;96.30;;;;;;5013618;28;20046;-80
2023/05/06 05:50:25;;;;;;;32.50;20.27;;;11.70;96.40;;;;;;4979779;28;20485;-81
2023/05/06 05:52:51;;;;;;;34.78;21.40;;;11.70;96.30;;;;;;4980867;28;20053;-80
2023/05/06 05:55:17;;;;;;;33.15;21.40;;;11.70;96.40;;;;;;4996816;28;20402;-80
2023/05/06 05:57:42;;;;;;;29.50;20.15;;;11.70;96.40;;;;;;4996919;28;20417;-80
2023/05/06 06:00:09;;;;;;;29.75;20.65;;;11.80;96.40;;;;;;4980841;28;20044;-80
2023/05/06 06:02:34;;;;;;;29.67;20.00;;;11.80;96.40;;;;;;5013233;28;20153;-80
2023/05/06 06:05:00;;;;;;;31.33;21.35;;;11.90;96.30;;;;;;4981018;28;20133;-80
2023/05/06 06:07:26;;;;;;;32.53;21.15;;;11.90;96.30;;;;;;4980790;28;20129;-79
2023/05/06 06:09:51;;;;;;;32.63;21.35;;;12.00;96.20;;;;;;4997072;28;20478;-80
2023/05/06 06:12:17;;;;;;;27.95;19.10;;;12.00;96.20;;;;;;4980689;28;20387;-80
2023/05/06 06:14:46;;;;;;;26.02;17.50;;;12.00;96.20;;;;;;4996793;28;20052;-80
2023/05/06 06:17:13;;;;;;;24.85;17.52;;;12.00;96.20;;;;;;4997219;28;20042;-81
2023/05/06 06:19:39;;;;;;;24.63;15.95;;;12.00;96.20;;;;;;5002804;28;20046;-80
2023/05/06 06:22:05;;;;;;;28.30;18.95;;;12.00;96.10;;;;;;5028107;28;20120;-80
2023/05/06 06:24:33;;;;;;;25.38;18.00;;;12.00;96.10;;;;;;5021918;28;20028;-79
2023/05/06 06:27:00;;;;;;;25.25;17.17;;;12.00;96.10;;;;;;5038908;28;20037;-77
2023/05/06 06:29:26;;;;;;;25.67;17.23;;;12.10;96.10;;;;;;5022541;28;20048;-80
2023/05/06 06:31:54;;;;;;;26.63;17.58;;;12.10;96.10;;;;;;5038667;28;20029;-81
2023/05/06 06:34:20;;;;;;;24.85;18.15;;;12.10;96.10;;;;;;5033977;28;20046;-80
2023/05/06 06:36:46;;;;;;;25.27;18.13;;;12.10;96.10;;;;;;5015478;28;20061;-80
2023/05/06 06:39:12;;;;;;;36.60;19.40;;;12.10;96.10;;;;;;5033134;28;20048;-81
2023/05/06 06:41:38;;;;;;;30.27;19.10;;;12.20;96.10;;;;;;5006217;28;20041;-79
2023/05/06 06:44:04;;;;;;;27.77;17.63;;;12.20;96.00;;;;;;4985465;28;20038;-80
2023/05/06 06:46:30;;;;;;;26.20;17.85;;;12.20;96.00;;;;;;4977217;28;20042;-80
2023/05/06 06:48:55;;;;;;;27.95;19.40;;;12.30;96.10;;;;;;4993505;28;20398;-81
2023/05/06 06:51:21;;;;;;;27.20;19.08;;;12.30;96.20;;;;;;4961170;28;20050;-81
2023/05/06 06:53:48;;;;;;;27.40;18.48;;;12.30;96.20;;;;;;4976704;28;20129;-80
2023/05/06 06:56:14;;;;;;;29.38;18.27;;;12.40;96.20;;;;;;4961220;28;20085;-80
2023/05/06 06:58:40;;;;;;;23.92;15.52;;;12.40;96.20;;;;;;4987729;28;20042;-77
2023/05/06 07:01:06;;;;;;;22.52;16.05;;;12.50;96.10;;;;;;5012917;28;20038;-77
2023/05/06 07:03:32;;;;;;;20.52;15.40;;;12.50;96.00;;;;;;5012406;28;20050;-78
2023/05/06 07:05:57;;;;;;;21.55;15.02;;;12.60;96.10;;;;;;5013096;28;20045;-77
2023/05/06 07:08:23;;;;;;;18.88;13.80;;;12.70;96.00;;;;;;5012605;28;20511;-80
2023/05/06 07:10:52;;;;;;;19.10;15.57;;;12.80;96.00;;;;;;4996415;28;20497;-82
2023/05/06 07:13:19;;;;;;;19.95;14.93;;;12.90;96.00;;;;;;4979278;28;20512;-81
2023/05/06 07:15:45;;;;;;;16.80;12.73;;;13.00;95.90;;;;;;4980079;28;20085;-80
2023/05/06 07:18:11;;;;;;;18.30;13.48;;;13.20;96.00;;;;;;4995705;28;20081;-78
2023/05/06 07:20:36;;;;;;;17.70;13.23;;;13.30;95.80;;;;;;5012545;28;20042;-79
2023/05/06 07:23:02;;;;;;;11.88;10.20;;;13.40;95.70;;;;;;4995963;28;20124;-82
2023/05/06 07:25:30;;;;;;;11.63;9.85;;;13.50;95.40;;;;;;4996142;28;20136;-81
2023/05/06 07:27:55;;;;;;;13.13;10.20;;;13.60;94.80;;;;;;4996497;28;20053;-82
2023/05/06 07:30:21;;;;;;;12.25;10.07;;;13.70;94.40;;;;;;4979011;28;20401;-81
2023/05/06 07:32:47;;;;;;;10.52;9.43;;;13.80;94.40;;;;;;5011976;28;20042;-81
2023/05/06 07:35:13;;;;;;;12.63;9.98;;;13.90;93.80;;;;;;5012043;28;20501;-81
2023/05/06 07:37:38;;;;;;;13.77;9.30;;;14.00;93.80;;;;;;4979688;28;20052;-79
2023/05/06 07:40:05;;;;;;;10.20;8.32;;;14.00;92.80;;;;;;5012212;28;20034;-81
2023/05/06 07:42:31;;;;;;;9.77;8.75;;;14.20;92.80;;;;;;5011941;28;20048;-80
2023/05/06 07:44:56;;;;;;;11.00;8.35;;;14.30;91.90;;;;;;4963325;28;20576;-80
2023/05/06 07:47:30;;;;;;;9.82;8.18;;;14.50;91.00;;;;;;4975218;28;20038;-81
2023/05/06 07:49:57;;;;;;;10.07;8.32;;;14.50;91.40;;;;;;4976128;28;20050;-81
2023/05/06 07:52:23;;;;;;;11.85;9.23;;;14.60;91.00;;;;;;4975900;28;20050;-79
2023/05/06 07:54:49;;;;;;;11.13;8.30;;;14.80;91.40;;;;;;4992230;28;20046;-82
2023/05/06 07:57:15;;;;;;;12.68;8.20;;;14.90;91.10;;;;;;4975123;28;20045;-82
2023/05/06 07:59:42;;;;;;;9.07;7.55;;;15.00;89.80;;;;;;4993947;28;20041;-81
2023/05/06 08:02:08;;;;;;;8.55;6.45;;;15.10;90.40;;;;;;4979441;28;20099;-82
2023/05/06 08:04:34;;;;;;;10.65;7.43;;;15.20;89.50;;;;;;4995266;28;20133;-80
2023/05/06 08:07:00;;;;;;;6.53;5.57;;;15.30;90.20;;;;;;4981807;28;20084;-82
2023/05/06 08:09:25;;;;;;;6.47;5.65;;;15.30;87.70;;;;;;4983029;28;20038;-81
2023/05/06 08:11:52;;;;;;;7.18;5.28;;;15.40;87.60;;;;;;5015706;28;20042;-80
2023/05/06 08:14:18;;;;;;;6.45;5.50;;;15.50;87.70;;;;;;4982115;28;20104;-80
2023/05/06 08:16:43;;;;;;;7.15;5.50;;;15.60;86.00;;;;;;4982798;28;20046;-80
2023/05/06 08:19:09;;;;;;;6.63;5.68;;;15.70;84.00;;;;;;4982719;28;20041;-83
2023/05/06 08:21:35;;;;;;;9.32;6.13;;;15.80;84.00;;;;;;4983346;28;20038;-80
2023/05/06 08:24:00;;;;;;;7.38;6.05;;;15.80;85.00;;;;;;4999193;28;20401;-80
2023/05/06 08:26:26;;;;;;;7.03;5.65;;;15.90;82.60;;;;;;4999724;28;20034;-78
2023/05/06 08:28:52;;;;;;;6.55;5.95;;;16.00;84.50;;;;;;4983020;28;20398;-80
2023/05/06 08:31:17;;;;;;;8.80;6.20;;;16.10;84.00;;;;;;4999615;28;20113;-81
2023/05/06 08:33:43;;;;;;;7.93;5.75;;;16.10;83.80;;;;;;5015347;28;20469;-78
2023/05/06 08:36:09;;;;;;;8.00;6.40;;;16.20;83.10;;;;;;5015335;28;20045;-78
2023/05/06 08:38:38;;;;;;;8.02;6.30;;;16.30;81.90;;;;;;5014960;28;20509;-82
2023/05/06 08:41:08;;;;;;;7.68;6.75;;;16.40;82.50;;;;;;4999046;28;20045;-81
2023/05/06 08:43:43;;;;;;;9.43;7.15;;;16.50;82.60;;;;;;5015214;28;20124;-78
2023/05/06 08:46:08;;;;;;;7.80;7.00;;;16.60;83.20;;;;;;4998615;28;20042;-82
2023/05/06 08:48:37;;;;;;;12.38;8.07;;;16.70;82.10;;;;;;4998062;28;20050;-82
2023/05/06 08:51:03;;;;;;;10.07;8.25;;;16.70;81.60;;;;;;5015196;28;20123;-83
2023/05/06 08:53:31;;;;;;;11.50;8.88;;;16.80;81.90;;;;;;4982676;28;20486;-83
2023/05/06 08:56:02;;;;;;;10.05;9.05;;;16.90;81.80;;;;;;5014913;28;20046;-80
2023/05/06 08:58:32;;;;;;;11.52;9.68;;;16.80;81.40;;;;;;5014565;28;20081;-80
2023/05/06 09:01:01;;;;;;;12.52;9.88;;;17.00;82.10;;;;;;5015095;28;20038;-83
2023/05/06 09:03:27;;;;;;;13.52;9.70;;;17.00;80.40;;;;;;4998612;28;20065;-79
2023/05/06 09:05:56;;;;;;;12.45;9.52;;;17.20;81.20;;;;;;5013764;28;20049;-81
2023/05/06 09:08:21;;;;;;;10.95;8.45;;;17.30;82.00;;;;;;5014296;28;20482;-84
2023/05/06 09:10:47;;;;;;;10.50;9.40;;;17.40;81.20;;;;;;4981951;28;20072;-81
2023/05/06 09:13:15;;;;;;;11.15;9.57;;;17.50;81.20;;;;;;5014399;28;20037;-81
2023/05/06 09:15:46;;;;;;;11.15;9.98;;;17.60;81.50;;;;;;5014239;28;20038;-81
2023/05/06 09:18:12;;;;;;;13.75;10.15;;;17.70;81.40;;;;;;5014049;28;20042;-80
2023/05/06 09:20:48;;;;;;;11.48;10.05;;;17.70;78.60;;;;;;5013695;28;20433;-80
2023/05/06 09:23:16;;;;;;;12.13;10.68;;;17.70;79.80;;;;;;5014175;28;20077;-81
2023/05/06 09:25:44;;;;;;;12.38;10.23;;;17.80;80.40;;;;;;5014114;28;20046;-80
2023/05/06 09:28:11;;;;;;;14.88;10.68;;;17.90;80.80;;;;;;4997711;28;20080;-80
2023/05/06 09:30:46;;;;;;;12.05;10.80;;;18.00;80.30;;;;;;4981307;28;20045;-81
2023/05/06 09:33:12;;;;;;;12.88;11.35;;;18.00;79.10;;;;;;4997811;28;20042;-76
2023/05/06 09:35:42;;;;;;;12.65;10.57;;;17.80;78.00;;;;;;5013577;28;20141;-78
2023/05/06 09:38:08;;;;;;;13.55;10.75;;;18.00;79.30;;;;;;4996875;28;20041;-81
2023/05/06 09:40:35;;;;;;;15.80;11.95;;;18.00;79.10;;;;;;4980716;28;20034;-80
2023/05/06 09:43:02;;;;;;;13.57;12.18;;;18.10;79.70;;;;;;4995746;28;20049;-81
2023/05/06 09:45:28;;;;;;;14.90;13.30;;;18.20;79.50;;;;;;4980400;28;20072;-81
2023/05/06 09:47:54;;;;;;;14.68;13.07;;;18.00;78.00;;;;;;5013154;28;20103;-82
2023/05/06 09:50:24;;;;;;;15.40;13.75;;;18.00;78.60;;;;;;4996307;28;20088;-81
2023/05/06 09:52:50;;;;;;;18.17;13.75;;;18.30;79.00;;;;;;5012664;28;20482;-81
2023/05/06 09:55:20;;;;;;;17.35;15.23;;;18.50;78.90;;;;;;4996174;28;20064;-82
2023/05/06 09:57:48;;;;;;;17.55;14.60;;;18.60;78.90;;;;;;5013157;28;20042;-82
2023/05/06 10:00:15;;;;;;;15.43;13.80;;;18.50;77.40;;;;;;5013181;28;20046;-82
2023/05/06 10:02:43;;;;;;;17.65;14.60;;;18.60;78.30;;;;;;4981267;28;20053;-81
2023/05/06 10:05:11;;;;;;;17.80;15.00;;;18.90;78.60;;;;;;4996872;28;20120;-79
2023/05/06 10:07:42;;;;;;;18.90;16.00;;;19.00;77.70;;;;;;4997763;28;20096;-81
2023/05/06 10:10:10;;;;;;;20.05;15.65;;;19.00;76.70;;;;;;4997233;28;20095;-80
2023/05/06 10:12:36;;;;;;;19.83;16.83;;;19.30;77.20;;;;;;5012356;28;20101;-83
2023/05/06 10:15:03;;;;;;;18.92;16.17;;;19.20;75.40;;;;;;5012974;28;20048;-82
2023/05/06 10:17:30;;;;;;;20.23;17.27;;;19.20;76.90;;;;;;4980700;28;20052;-83
2023/05/06 10:19:59;;;;;;;20.33;15.95;;;19.20;76.40;;;;;;4996905;28;20042;-83
2023/05/06 10:22:40;;;;;;;18.58;15.80;;;19.20;77.20;;;;;;4996361;28;20483;-83
2023/05/06 10:25:11;;;;;;;20.60;17.60;;;19.20;77.00;;;;;;5013080;28;20077;-81
2023/05/06 10:27:42;;;;;;;19.27;16.17;;;19.10;75.80;;;;;;4996785;28;20080;-80
2023/05/06 10:30:10;;;;;;;19.63;16.48;;;19.00;76.30;;;;;;5011298;28;20395;-81
2023/05/06 10:32:41;;;;;;;19.98;16.60;;;19.00;76.10;;;;;;4996527;28;20442;-81
2023/05/06 10:35:37;;;;;;;19.67;17.35;;;19.20;76.20;;;;;;5013182;28;20046;-83
2023/05/06 10:38:05;;;;;;;20.70;17.42;;;19.10;75.70;;;;;;5012890;28;20088;-83
2023/05/06 10:40:31;;;;;;;21.90;17.75;;;19.00;76.40;;;;;;5012677;28;20038;-83
2023/05/06 10:43:19;;;;;;;20.88;18.10;;;18.90;75.50;;;;;;4980466;28;20034;-81
2023/05/06 10:46:13;;;;;;;19.45;17.10;;;19.10;75.30;;;;;;4996003;28;20077;-82
2023/05/06 10:49:21;;;;;;;22.70;18.90;;;19.20;75.40;;;;;;4996486;28;20045;-81
2023/05/06 10:51:47;;;;;;;21.95;18.38;;;19.20;72.40;;;;;;4997920;28;20085;-84
2023/05/06 10:54:19;;;;;;;22.92;17.40;;;19.40;74.40;;;;;;4996098;28;20064;-80
2023/05/06 10:56:48;;;;;;;19.58;16.75;;;19.60;73.00;;;;;;4995999;28;20046;-80
2023/05/06 10:59:19;;;;;;;20.00;15.85;;;19.70;72.80;;;;;;5011094;28;20081;-84
2023/05/06 11:01:54;;;;;;;20.35;16.67;;;19.80;73.00;;;;;;4995859;28;20038;-83
2023/05/06 11:04:21;;;;;;;17.05;13.65;;;20.00;72.30;;;;;;5012044;28;20057;-83
2023/05/06 11:06:48;;;;;;;13.95;11.23;;;20.00;70.90;;;;;;5012319;28;20085;-80
2023/05/06 11:09:26;;;;;;;15.18;12.63;;;19.80;65.80;;;;;;4996294;28;20046;-82
2023/05/06 11:12:05;;;;;;;18.48;16.45;;;19.50;69.00;;;;;;4995767;28;20505;-81
2023/05/06 11:14:37;;;;;;;18.10;14.98;;;19.40;69.90;;;;;;5012077;28;20053;-82
2023/05/06 11:17:08;;;;;;;21.95;17.70;;;19.40;70.80;;;;;;4995298;28;20041;-81
2023/05/06 11:19:39;;;;;;;18.40;16.30;;;19.20;71.90;;;;;;5012369;28;20041;-80
2023/05/06 11:22:05;;;;;;;18.73;15.82;;;19.00;72.40;;;;;;4995608;28;20124;-80
2023/05/06 11:24:40;;;;;;;19.77;17.55;;;18.90;72.20;;;;;;5012169;28;20509;-80
2023/05/06 11:27:06;;;;;;;20.40;14.98;;;18.70;72.60;;;;;;5012036;28;20516;-82
2023/05/06 11:29:32;;;;;;;18.90;16.05;;;18.60;72.90;;;;;;5012255;28;20181;-83
2023/05/06 11:31:58;;;;;;;19.02;16.60;;;18.50;72.30;;;;;;5012407;28;20524;-84
2023/05/06 11:34:31;;;;;;;18.27;15.20;;;18.50;73.30;;;;;;4995016;28;20482;-82
2023/05/06 11:36:57;;;;;;;18.63;15.10;;;18.50;73.30;;;;;;5011768;28;20049;-83
2023/05/06 11:39:29;;;;;;;18.08;14.95;;;18.50;73.50;;;;;;5012133;28;20095;-80
2023/05/06 11:41:56;;;;;;;16.75;14.88;;;18.60;73.90;;;;;;5014399;28;20042;-81
2023/05/06 11:44:48;;;;;;;18.25;15.07;;;18.60;74.10;;;;;;4999546;28;20038;-81
2023/05/06 11:47:14;;;;;;;17.20;12.38;;;18.60;73.50;;;;;;5013878;28;20046;-79
2023/05/06 11:49:41;;;;;;;14.90;13.15;;;18.70;73.80;;;;;;4999595;28;20068;-77
2023/05/06 11:52:11;;;;;;;18.90;14.57;;;18.80;73.10;;;;;;4998859;28;20046;-81
2023/05/06 11:54:41;;;;;;;19.15;15.30;;;18.90;72.80;;;;;;5015868;28;20041;-80
2023/05/06 11:57:08;;;;;;;16.13;14.02;;;19.00;73.00;;;;;;5015616;28;20128;-77
2023/05/06 11:59:36;;;;;;;17.50;14.13;;;19.30;71.70;;;;;;5015543;28;20129;-81
2023/05/06 12:02:08;;;;;;;19.08;15.00;;;19.50;71.60;;;;;;5015831;28;20030;-80
2023/05/06 12:04:45;;;;;;;14.82;13.13;;;19.60;71.20;;;;;;4998892;28;20089;-80
2023/05/06 12:07:13;;;;;;;19.88;15.02;;;19.70;70.40;;;;;;5014583;28;20128;-81
2023/05/06 12:09:44;;;;;;;18.73;14.07;;;19.70;69.50;;;;;;5015518;28;20048;-82
2023/05/06 12:12:13;;;;;;;14.10;11.55;;;19.90;69.20;;;;;;4999451;28;20474;-83
2023/05/06 12:14:40;;;;;;;17.63;13.70;;;20.00;69.10;;;;;;4999028;28;20046;-81
2023/05/06 12:17:06;;;;;;;17.02;12.50;;;20.10;69.00;;;;;;5015383;28;20560;-79
2023/05/06 12:19:32;;;;;;;15.60;11.45;;;20.00;68.40;;;;;;5015303;28;20041;-79
2023/05/06 12:22:18;;;;;;;14.52;10.27;;;20.30;68.70;;;;;;5015146;28;20557;-78
2023/05/06 12:24:44;;;;;;;10.63;7.80;;;20.40;66.20;;;;;;4997881;28;20038;-83
2023/05/06 12:27:10;;;;;;;9.65;6.70;;;20.50;66.60;;;;;;4998774;28;20386;-82
2023/05/06 12:29:36;;;;;;;14.38;9.27;;;20.40;64.90;;;;;;4999275;28;20049;-82
2023/05/06 12:32:10;;;;;;;14.15;10.32;;;20.40;64.80;;;;;;5014813;28;20504;-79
2023/05/06 12:34:40;;;;;;;14.55;10.48;;;20.30;65.50;;;;;;4998774;28;20136;-82